East Monbo, North Carolina
Current Conditions -  °F | °C
As of 10:55 PM on Tuesday 27 Jan 2015 (Local Time) from KSVH Reporting Station
Clear Clear  
Wind Chill: 26°   Ceiling: Unl
Heat Index: 31°   Visibility: 10mi
Dew Point: 15°   Wind: 6mph
Humidity: 50%   Direction: 290°WNW
Pressure: 30"   Gusts: NA
Location:  35.8306°N, 80.9003°W
Report Text: KSVH 280355Z AUTO 29005KT 10SM CLR 00/M09 A3000 RMK AO2 T10031095
Loading
Personal Weather Stations






























Interactive Weather Map New forecast layout! Learn more

10-Day Weather Forecast

Advertisements
Track Severe Weather on mobile